sensor_id;sensor_type;location;lat;lon;timestamp;P1;durP1;ratioP1;P2;durP2;ratioP2
8488;SDS011;4281;45.772;12.852;2023-10-08T00:00:47;10.93;;;9.83;;
8488;SDS011;4281;45.772;12.852;2023-10-08T00:03:18;11.43;;;10.20;;
8488;SDS011;4281;45.772;12.852;2023-10-08T00:05:47;12.57;;;11.10;;
8488;SDS011;4281;45.772;12.852;2023-10-08T00:08:16;11.20;;;10.10;;
8488;SDS011;4281;45.772;12.852;2023-10-08T00:10:44;11.93;;;10.73;;
8488;SDS011;4281;45.772;12.852;2023-10-08T00:13:14;11.80;;;10.60;;
8488;SDS011;4281;45.772;12.852;2023-10-08T00:15:43;12.23;;;10.73;;
8488;SDS011;4281;45.772;12.852;2023-10-08T00:18:19;12.13;;;10.83;;
8488;SDS011;4281;45.772;12.852;2023-10-08T00:20:49;12.27;;;11.07;;
8488;SDS011;4281;45.772;12.852;2023-10-08T00:23:25;12.03;;;10.90;;
8488;SDS011;4281;45.772;12.852;2023-10-08T00:25:53;12.37;;;11.10;;
8488;SDS011;4281;45.772;12.852;2023-10-08T00:28:22;12.77;;;11.47;;
8488;SDS011;4281;45.772;12.852;2023-10-08T00:30:51;13.10;;;11.90;;
8488;SDS011;4281;45.772;12.852;2023-10-08T00:33:20;12.77;;;11.47;;
8488;SDS011;4281;45.772;12.852;2023-10-08T00:35:48;12.33;;;11.13;;
8488;SDS011;4281;45.772;12.852;2023-10-08T00:38:16;12.13;;;10.93;;
8488;SDS011;4281;45.772;12.852;2023-10-08T00:40:47;12.93;;;11.53;;
8488;SDS011;4281;45.772;12.852;2023-10-08T00:43:32;11.93;;;10.73;;
8488;SDS011;4281;45.772;12.852;2023-10-08T00:46:01;13.50;;;12.10;;
8488;SDS011;4281;45.772;12.852;2023-10-08T00:48:44;12.37;;;11.13;;
8488;SDS011;4281;45.772;12.852;2023-10-08T00:51:12;13.10;;;11.73;;
8488;SDS011;4281;45.772;12.852;2023-10-08T00:53:52;12.67;;;11.43;;
8488;SDS011;4281;45.772;12.852;2023-10-08T00:56:26;12.97;;;11.63;;
8488;SDS011;4281;45.772;12.852;2023-10-08T00:59:13;12.07;;;10.87;;
8488;SDS011;4281;45.772;12.852;2023-10-08T01:01:42;12.57;;;11.23;;
8488;SDS011;4281;45.772;12.852;2023-10-08T01:04:17;12.60;;;11.23;;
8488;SDS011;4281;45.772;12.852;2023-10-08T01:06:49;12.10;;;11.00;;
8488;SDS011;4281;45.772;12.852;2023-10-08T01:09:22;12.87;;;11.37;;
8488;SDS011;4281;45.772;12.852;2023-10-08T01:12:08;12.87;;;11.67;;
8488;SDS011;4281;45.772;12.852;2023-10-08T01:14:43;12.63;;;11.10;;
8488;SDS011;4281;45.772;12.852;2023-10-08T01:17:13;13.13;;;11.83;;
8488;SDS011;4281;45.772;12.852;2023-10-08T01:19:42;12.97;;;11.67;;
8488;SDS011;4281;45.772;12.852;2023-10-08T01:22:13;13.30;;;12.07;;
8488;SDS011;4281;45.772;12.852;2023-10-08T01:24:46;13.23;;;11.93;;
8488;SDS011;4281;45.772;12.852;2023-10-08T01:27:15;14.37;;;12.87;;
8488;SDS011;4281;45.772;12.852;2023-10-08T01:29:48;13.73;;;12.33;;
8488;SDS011;4281;45.772;12.852;2023-10-08T01:32:17;13.70;;;12.40;;
8488;SDS011;4281;45.772;12.852;2023-10-08T01:34:47;13.67;;;11.90;;
8488;SDS011;4281;45.772;12.852;2023-10-08T01:37:16;13.30;;;11.97;;
8488;SDS011;4281;45.772;12.852;2023-10-08T01:39:45;14.87;;;12.87;;
8488;SDS011;4281;45.772;12.852;2023-10-08T01:42:14;14.13;;;12.73;;
8488;SDS011;4281;45.772;12.852;2023-10-08T01:44:47;13.90;;;12.40;;
8488;SDS011;4281;45.772;12.852;2023-10-08T01:47:17;13.53;;;12.20;;
8488;SDS011;4281;45.772;12.852;2023-10-08T01:49:45;13.33;;;11.93;;
8488;SDS011;4281;45.772;12.852;2023-10-08T01:52:13;14.43;;;12.83;;
8488;SDS011;4281;45.772;12.852;2023-10-08T01:54:48;13.87;;;12.47;;
8488;SDS011;4281;45.772;12.852;2023-10-08T01:57:16;13.40;;;12.07;;
8488;SDS011;4281;45.772;12.852;2023-10-08T01:59:44;11.87;;;10.77;;
8488;SDS011;4281;45.772;12.852;2023-10-08T02:02:12;13.47;;;12.07;;
8488;SDS011;4281;45.772;12.852;2023-10-08T02:04:42;13.47;;;12.07;;
8488;SDS011;4281;45.772;12.852;2023-10-08T02:07:10;13.07;;;11.77;;
8488;SDS011;4281;45.772;12.852;2023-10-08T02:09:39;13.30;;;12.00;;
8488;SDS011;4281;45.772;12.852;2023-10-08T02:12:09;13.77;;;12.20;;
8488;SDS011;4281;45.772;12.852;2023-10-08T02:14:40;14.10;;;12.63;;
8488;SDS011;4281;45.772;12.852;2023-10-08T02:17:08;13.40;;;12.10;;
8488;SDS011;4281;45.772;12.852;2023-10-08T02:19:37;14.50;;;13.10;;
8488;SDS011;4281;45.772;12.852;2023-10-08T02:22:05;14.37;;;12.87;;
8488;SDS011;4281;45.772;12.852;2023-10-08T02:24:36;14.87;;;13.37;;
8488;SDS011;4281;45.772;12.852;2023-10-08T02:27:04;15.27;;;12.87;;
8488;SDS011;4281;45.772;12.852;2023-10-08T02:29:34;14.77;;;13.37;;
8488;SDS011;4281;45.772;12.852;2023-10-08T02:32:02;14.80;;;13.40;;
8488;SDS011;4281;45.772;12.852;2023-10-08T02:34:31;14.77;;;13.37;;
8488;SDS011;4281;45.772;12.852;2023-10-08T02:36:59;14.67;;;13.17;;
8488;SDS011;4281;45.772;12.852;2023-10-08T02:39:27;14.97;;;13.43;;
8488;SDS011;4281;45.772;12.852;2023-10-08T02:41:56;14.30;;;12.73;;
8488;SDS011;4281;45.772;12.852;2023-10-08T02:44:26;14.23;;;12.93;;
8488;SDS011;4281;45.772;12.852;2023-10-08T02:46:56;14.70;;;13.17;;
8488;SDS011;4281;45.772;12.852;2023-10-08T02:49:25;13.17;;;11.93;;
8488;SDS011;4281;45.772;12.852;2023-10-08T02:51:58;13.00;;;11.60;;
8488;SDS011;4281;45.772;12.852;2023-10-08T02:54:26;12.90;;;11.60;;
8488;SDS011;4281;45.772;12.852;2023-10-08T02:57:02;11.93;;;10.83;;
8488;SDS011;4281;45.772;12.852;2023-10-08T02:59:31;13.07;;;11.87;;
8488;SDS011;4281;45.772;12.852;2023-10-08T03:02:08;13.37;;;11.40;;
8488;SDS011;4281;45.772;12.852;2023-10-08T03:04:42;12.23;;;11.03;;
8488;SDS011;4281;45.772;12.852;2023-10-08T03:07:12;11.80;;;10.70;;
8488;SDS011;4281;45.772;12.852;2023-10-08T03:09:48;11.47;;;10.47;;
8488;SDS011;4281;45.772;12.852;2023-10-08T03:12:17;11.97;;;10.50;;
8488;SDS011;4281;45.772;12.852;2023-10-08T03:14:45;11.23;;;10.13;;
8488;SDS011;4281;45.772;12.852;2023-10-08T03:17:29;10.53;;;9.50;;
8488;SDS011;4281;45.772;12.852;2023-10-08T03:20:04;11.03;;;9.97;;
8488;SDS011;4281;45.772;12.852;2023-10-08T03:22:55;9.87;;;8.97;;
8488;SDS011;4281;45.772;12.852;2023-10-08T03:25:24;10.23;;;9.23;;
8488;SDS011;4281;45.772;12.852;2023-10-08T03:27:54;10.63;;;9.53;;
8488;SDS011;4281;45.772;12.852;2023-10-08T03:30:24;9.77;;;8.77;;
8488;SDS011;4281;45.772;12.852;2023-10-08T03:32:54;10.97;;;9.20;;
8488;SDS011;4281;45.772;12.852;2023-10-08T03:35:22;9.90;;;8.90;;
8488;SDS011;4281;45.772;12.852;2023-10-08T03:37:57;9.67;;;8.57;;
8488;SDS011;4281;45.772;12.852;2023-10-08T03:40:46;9.27;;;8.37;;
8488;SDS011;4281;45.772;12.852;2023-10-08T03:43:16;9.70;;;8.70;;
8488;SDS011;4281;45.772;12.852;2023-10-08T03:45:51;9.67;;;8.70;;
8488;SDS011;4281;45.772;12.852;2023-10-08T03:48:27;8.93;;;8.03;;
8488;SDS011;4281;45.772;12.852;2023-10-08T03:51:02;8.57;;;7.77;;
8488;SDS011;4281;45.772;12.852;2023-10-08T03:53:38;8.73;;;7.83;;
8488;SDS011;4281;45.772;12.852;2023-10-08T03:56:24;8.60;;;7.80;;
8488;SDS011;4281;45.772;12.852;2023-10-08T03:58:56;8.40;;;7.60;;
8488;SDS011;4281;45.772;12.852;2023-10-08T04:01:27;8.43;;;7.63;;
8488;SDS011;4281;45.772;12.852;2023-10-08T04:04:00;8.63;;;7.83;;
8488;SDS011;4281;45.772;12.852;2023-10-08T04:06:28;7.87;;;7.07;;
8488;SDS011;4281;45.772;12.852;2023-10-08T04:09:04;9.23;;;8.27;;
8488;SDS011;4281;45.772;12.852;2023-10-08T04:11:43;9.30;;;8.17;;
8488;SDS011;4281;45.772;12.852;2023-10-08T04:14:21;9.30;;;7.90;;
8488;SDS011;4281;45.772;12.852;2023-10-08T04:16:50;8.23;;;7.40;;
8488;SDS011;4281;45.772;12.852;2023-10-08T04:19:21;8.93;;;8.03;;
8488;SDS011;4281;45.772;12.852;2023-10-08T04:21:53;8.13;;;7.33;;
8488;SDS011;4281;45.772;12.852;2023-10-08T04:24:22;8.00;;;7.20;;
8488;SDS011;4281;45.772;12.852;2023-10-08T04:27:01;8.30;;;7.27;;
8488;SDS011;4281;45.772;12.852;2023-10-08T04:29:32;8.40;;;7.50;;
8488;SDS011;4281;45.772;12.852;2023-10-08T04:32:03;8.27;;;7.47;;
8488;SDS011;4281;45.772;12.852;2023-10-08T04:34:37;8.03;;;7.13;;
8488;SDS011;4281;45.772;12.852;2023-10-08T04:37:10;7.83;;;7.07;;
8488;SDS011;4281;45.772;12.852;2023-10-08T04:39:40;8.43;;;7.63;;
8488;SDS011;4281;45.772;12.852;2023-10-08T04:42:15;8.90;;;8.00;;
8488;SDS011;4281;45.772;12.852;2023-10-08T04:44:52;8.00;;;7.20;;
8488;SDS011;4281;45.772;12.852;2023-10-08T04:47:21;8.17;;;7.43;;
8488;SDS011;4281;45.772;12.852;2023-10-08T04:50:00;8.70;;;7.80;;
8488;SDS011;4281;45.772;12.852;2023-10-08T04:52:31;8.93;;;8.10;;
8488;SDS011;4281;45.772;12.852;2023-10-08T04:55:01;8.17;;;7.27;;
8488;SDS011;4281;45.772;12.852;2023-10-08T04:57:39;8.67;;;7.87;;
8488;SDS011;4281;45.772;12.852;2023-10-08T05:00:09;8.57;;;7.50;;
8488;SDS011;4281;45.772;12.852;2023-10-08T05:02:41;8.93;;;8.03;;
8488;SDS011;4281;45.772;12.852;2023-10-08T05:05:18;8.60;;;7.70;;
8488;SDS011;4281;45.772;12.852;2023-10-08T05:07:49;7.90;;;7.20;;
8488;SDS011;4281;45.772;12.852;2023-10-08T05:10:44;8.03;;;7.23;;
8488;SDS011;4281;45.772;12.852;2023-10-08T05:13:27;9.30;;;7.47;;
8488;SDS011;4281;45.772;12.852;2023-10-08T05:16:01;8.13;;;7.33;;
8488;SDS011;4281;45.772;12.852;2023-10-08T05:18:38;8.60;;;7.47;;
8488;SDS011;4281;45.772;12.852;2023-10-08T05:21:21;8.10;;;7.30;;
8488;SDS011;4281;45.772;12.852;2023-10-08T05:24:07;8.93;;;7.47;;
8488;SDS011;4281;45.772;12.852;2023-10-08T05:26:40;8.00;;;7.20;;
8488;SDS011;4281;45.772;12.852;2023-10-08T05:29:15;10.20;;;7.47;;
8488;SDS011;4281;45.772;12.852;2023-10-08T05:32:01;7.87;;;7.03;;
8488;SDS011;4281;45.772;12.852;2023-10-08T05:34:46;7.17;;;6.47;;
8488;SDS011;4281;45.772;12.852;2023-10-08T05:37:40;8.17;;;7.30;;
8488;SDS011;4281;45.772;12.852;2023-10-08T05:40:09;8.13;;;7.30;;
8488;SDS011;4281;45.772;12.852;2023-10-08T05:43:04;7.67;;;6.87;;
8488;SDS011;4281;45.772;12.852;2023-10-08T05:45:49;7.37;;;6.67;;
8488;SDS011;4281;45.772;12.852;2023-10-08T05:48:40;7.77;;;6.90;;
8488;SDS011;4281;45.772;12.852;2023-10-08T05:51:12;7.80;;;7.00;;
8488;SDS011;4281;45.772;12.852;2023-10-08T05:53:51;8.30;;;7.50;;
8488;SDS011;4281;45.772;12.852;2023-10-08T05:56:22;7.23;;;6.60;;
8488;SDS011;4281;45.772;12.852;2023-10-08T05:59:08;7.90;;;7.10;;
8488;SDS011;4281;45.772;12.852;2023-10-08T06:01:44;7.63;;;6.87;;
8488;SDS011;4281;45.772;12.852;2023-10-08T06:04:12;7.33;;;6.63;;
8488;SDS011;4281;45.772;12.852;2023-10-08T06:07:09;8.20;;;7.23;;
8488;SDS011;4281;45.772;12.852;2023-10-08T06:09:44;9.53;;;7.30;;
8488;SDS011;4281;45.772;12.852;2023-10-08T06:12:28;7.83;;;7.13;;
8488;SDS011;4281;45.772;12.852;2023-10-08T06:14:56;8.33;;;7.43;;
8488;SDS011;4281;45.772;12.852;2023-10-08T06:17:44;7.60;;;6.90;;
8488;SDS011;4281;45.772;12.852;2023-10-08T06:20:33;7.80;;;6.70;;
8488;SDS011;4281;45.772;12.852;2023-10-08T06:23:01;7.90;;;7.10;;
8488;SDS011;4281;45.772;12.852;2023-10-08T06:25:35;7.20;;;6.50;;
8488;SDS011;4281;45.772;12.852;2023-10-08T06:28:15;7.80;;;6.63;;
8488;SDS011;4281;45.772;12.852;2023-10-08T06:30:46;8.20;;;7.40;;
8488;SDS011;4281;45.772;12.852;2023-10-08T06:33:15;7.50;;;6.80;;
8488;SDS011;4281;45.772;12.852;2023-10-08T06:35:44;8.10;;;7.37;;
8488;SDS011;4281;45.772;12.852;2023-10-08T06:38:28;8.97;;;7.57;;
8488;SDS011;4281;45.772;12.852;2023-10-08T06:40:59;8.23;;;7.37;;
8488;SDS011;4281;45.772;12.852;2023-10-08T06:43:28;7.50;;;6.80;;
8488;SDS011;4281;45.772;12.852;2023-10-08T06:45:56;8.10;;;7.30;;
8488;SDS011;4281;45.772;12.852;2023-10-08T06:48:25;8.20;;;7.40;;
8488;SDS011;4281;45.772;12.852;2023-10-08T06:50:56;8.70;;;7.80;;
8488;SDS011;4281;45.772;12.852;2023-10-08T06:53:24;9.13;;;7.50;;
8488;SDS011;4281;45.772;12.852;2023-10-08T06:55:56;9.13;;;7.70;;
8488;SDS011;4281;45.772;12.852;2023-10-08T06:58:28;7.53;;;6.57;;
8488;SDS011;4281;45.772;12.852;2023-10-08T07:00:58;8.80;;;7.93;;
8488;SDS011;4281;45.772;12.852;2023-10-08T07:03:31;8.63;;;7.30;;
8488;SDS011;4281;45.772;12.852;2023-10-08T07:06:00;9.00;;;7.23;;
8488;SDS011;4281;45.772;12.852;2023-10-08T07:08:37;7.87;;;7.13;;
8488;SDS011;4281;45.772;12.852;2023-10-08T07:11:05;7.63;;;6.93;;
8488;SDS011;4281;45.772;12.852;2023-10-08T07:13:39;7.80;;;6.70;;
8488;SDS011;4281;45.772;12.852;2023-10-08T07:16:09;7.90;;;7.10;;
8488;SDS011;4281;45.772;12.852;2023-10-08T07:18:38;8.10;;;7.30;;
8488;SDS011;4281;45.772;12.852;2023-10-08T07:21:08;8.77;;;7.87;;
8488;SDS011;4281;45.772;12.852;2023-10-08T07:23:39;7.80;;;6.93;;
8488;SDS011;4281;45.772;12.852;2023-10-08T07:26:24;7.23;;;6.53;;
8488;SDS011;4281;45.772;12.852;2023-10-08T07:28:54;7.60;;;6.90;;
8488;SDS011;4281;45.772;12.852;2023-10-08T07:31:22;9.03;;;6.80;;
8488;SDS011;4281;45.772;12.852;2023-10-08T07:33:55;9.57;;;7.20;;
8488;SDS011;4281;45.772;12.852;2023-10-08T07:36:24;8.77;;;6.80;;
8488;SDS011;4281;45.772;12.852;2023-10-08T07:38:53;8.33;;;6.97;;
8488;SDS011;4281;45.772;12.852;2023-10-08T07:41:21;8.53;;;6.97;;
8488;SDS011;4281;45.772;12.852;2023-10-08T07:43:49;7.57;;;6.70;;
8488;SDS011;4281;45.772;12.852;2023-10-08T07:46:23;7.47;;;6.77;;
8488;SDS011;4281;45.772;12.852;2023-10-08T07:48:53;8.13;;;7.33;;
8488;SDS011;4281;45.772;12.852;2023-10-08T07:51:21;8.30;;;6.87;;
8488;SDS011;4281;45.772;12.852;2023-10-08T07:53:50;8.63;;;6.90;;
8488;SDS011;4281;45.772;12.852;2023-10-08T07:56:21;7.63;;;6.90;;
8488;SDS011;4281;45.772;12.852;2023-10-08T07:58:50;8.87;;;7.20;;
8488;SDS011;4281;45.772;12.852;2023-10-08T08:01:18;7.80;;;7.00;;
8488;SDS011;4281;45.772;12.852;2023-10-08T08:03:48;7.37;;;6.73;;
8488;SDS011;4281;45.772;12.852;2023-10-08T08:06:17;7.83;;;6.63;;
8488;SDS011;4281;45.772;12.852;2023-10-08T08:08:45;8.27;;;7.10;;
8488;SDS011;4281;45.772;12.852;2023-10-08T08:11:13;7.00;;;6.37;;
8488;SDS011;4281;45.772;12.852;2023-10-08T08:13:44;7.27;;;6.57;;
8488;SDS011;4281;45.772;12.852;2023-10-08T08:16:13;7.53;;;6.70;;
8488;SDS011;4281;45.772;12.852;2023-10-08T08:18:44;7.93;;;7.13;;
8488;SDS011;4281;45.772;12.852;2023-10-08T08:21:14;7.90;;;7.10;;
8488;SDS011;4281;45.772;12.852;2023-10-08T08:23:43;8.83;;;7.93;;
8488;SDS011;4281;45.772;12.852;2023-10-08T08:26:15;8.37;;;7.57;;
8488;SDS011;4281;45.772;12.852;2023-10-08T08:28:54;8.27;;;7.30;;
8488;SDS011;4281;45.772;12.852;2023-10-08T08:31:24;8.40;;;7.60;;
8488;SDS011;4281;45.772;12.852;2023-10-08T08:33:52;7.90;;;7.10;;
8488;SDS011;4281;45.772;12.852;2023-10-08T08:36:24;8.57;;;7.57;;
8488;SDS011;4281;45.772;12.852;2023-10-08T08:38:52;8.43;;;7.10;;
8488;SDS011;4281;45.772;12.852;2023-10-08T08:41:20;7.60;;;6.90;;
8488;SDS011;4281;45.772;12.852;2023-10-08T08:43:50;8.30;;;7.40;;
8488;SDS011;4281;45.772;12.852;2023-10-08T08:46:31;7.77;;;7.07;;
8488;SDS011;4281;45.772;12.852;2023-10-08T08:49:02;8.43;;;7.40;;
8488;SDS011;4281;45.772;12.852;2023-10-08T08:51:32;8.77;;;7.87;;
8488;SDS011;4281;45.772;12.852;2023-10-08T08:54:01;9.00;;;8.10;;
8488;SDS011;4281;45.772;12.852;2023-10-08T08:56:33;10.93;;;8.23;;
8488;SDS011;4281;45.772;12.852;2023-10-08T08:59:01;10.13;;;8.33;;
8488;SDS011;4281;45.772;12.852;2023-10-08T09:01:30;11.47;;;8.37;;
8488;SDS011;4281;45.772;12.852;2023-10-08T09:03:59;9.07;;;7.73;;
8488;SDS011;4281;45.772;12.852;2023-10-08T09:06:30;9.83;;;8.73;;
8488;SDS011;4281;45.772;12.852;2023-10-08T09:09:00;9.27;;;7.10;;
8488;SDS011;4281;45.772;12.852;2023-10-08T09:11:48;8.40;;;7.50;;
8488;SDS011;4281;45.772;12.852;2023-10-08T09:14:19;9.13;;;8.20;;
8488;SDS011;4281;45.772;12.852;2023-10-08T09:16:48;8.33;;;7.53;;
8488;SDS011;4281;45.772;12.852;2023-10-08T09:19:16;8.03;;;7.23;;
8488;SDS011;4281;45.772;12.852;2023-10-08T09:22:00;9.77;;;7.80;;
8488;SDS011;4281;45.772;12.852;2023-10-08T09:24:30;8.73;;;7.53;;
8488;SDS011;4281;45.772;12.852;2023-10-08T09:26:59;8.87;;;8.07;;
8488;SDS011;4281;45.772;12.852;2023-10-08T09:29:28;9.47;;;8.47;;
8488;SDS011;4281;45.772;12.852;2023-10-08T09:31:57;9.00;;;7.70;;
8488;SDS011;4281;45.772;12.852;2023-10-08T09:34:27;9.90;;;8.90;;
8488;SDS011;4281;45.772;12.852;2023-10-08T09:36:56;9.47;;;8.47;;
8488;SDS011;4281;45.772;12.852;2023-10-08T09:39:28;9.30;;;8.40;;
8488;SDS011;4281;45.772;12.852;2023-10-08T09:42:00;10.30;;;8.80;;
8488;SDS011;4281;45.772;12.852;2023-10-08T09:44:33;11.33;;;9.33;;
8488;SDS011;4281;45.772;12.852;2023-10-08T09:47:03;11.00;;;9.20;;
8488;SDS011;4281;45.772;12.852;2023-10-08T09:49:32;10.33;;;9.17;;
8488;SDS011;4281;45.772;12.852;2023-10-08T09:52:05;10.93;;;9.80;;
8488;SDS011;4281;45.772;12.852;2023-10-08T09:54:37;11.50;;;10.30;;
8488;SDS011;4281;45.772;12.852;2023-10-08T09:57:10;12.87;;;11.47;;
8488;SDS011;4281;45.772;12.852;2023-10-08T09:59:39;12.63;;;11.43;;
8488;SDS011;4281;45.772;12.852;2023-10-08T10:02:07;12.43;;;11.13;;
8488;SDS011;4281;45.772;12.852;2023-10-08T10:04:41;13.47;;;12.07;;
8488;SDS011;4281;45.772;12.852;2023-10-08T10:07:10;13.87;;;11.60;;
8488;SDS011;4281;45.772;12.852;2023-10-08T10:09:43;12.23;;;11.03;;
8488;SDS011;4281;45.772;12.852;2023-10-08T10:12:17;13.07;;;11.77;;
8488;SDS011;4281;45.772;12.852;2023-10-08T10:14:52;12.67;;;11.43;;
8488;SDS011;4281;45.772;12.852;2023-10-08T10:17:22;14.00;;;12.00;;
8488;SDS011;4281;45.772;12.852;2023-10-08T10:20:09;14.43;;;12.97;;
8488;SDS011;4281;45.772;12.852;2023-10-08T10:22:42;14.63;;;13.23;;
8488;SDS011;4281;45.772;12.852;2023-10-08T10:25:12;14.73;;;13.33;;
8488;SDS011;4281;45.772;12.852;2023-10-08T10:30:50;15.87;;;12.73;;
8488;SDS011;4281;45.772;12.852;2023-10-08T10:33:18;16.33;;;13.80;;
8488;SDS011;4281;45.772;12.852;2023-10-08T10:35:51;14.83;;;13.33;;
8488;SDS011;4281;45.772;12.852;2023-10-08T10:38:19;16.07;;;14.47;;
8488;SDS011;4281;45.772;12.852;2023-10-08T10:40:50;15.10;;;13.50;;
8488;SDS011;4281;45.772;12.852;2023-10-08T10:43:23;14.53;;;13.20;;
8488;SDS011;4281;45.772;12.852;2023-10-08T10:45:59;15.57;;;13.70;;
8488;SDS011;4281;45.772;12.852;2023-10-08T10:48:46;16.10;;;14.03;;
8488;SDS011;4281;45.772;12.852;2023-10-08T10:51:23;14.67;;;13.27;;
8488;SDS011;4281;45.772;12.852;2023-10-08T10:53:51;14.77;;;13.37;;
8488;SDS011;4281;45.772;12.852;2023-10-08T10:56:25;15.47;;;13.97;;
8488;SDS011;4281;45.772;12.852;2023-10-08T10:58:58;16.77;;;15.00;;
8488;SDS011;4281;45.772;12.852;2023-10-08T11:01:26;17.03;;;15.30;;
8488;SDS011;4281;45.772;12.852;2023-10-08T11:04:10;16.33;;;14.73;;
8488;SDS011;4281;45.772;12.852;2023-10-08T11:06:43;16.27;;;14.67;;
8488;SDS011;4281;45.772;12.852;2023-10-08T11:09:12;17.37;;;15.33;;
8488;SDS011;4281;45.772;12.852;2023-10-08T11:11:44;18.73;;;16.83;;
8488;SDS011;4281;45.772;12.852;2023-10-08T11:14:12;18.80;;;17.03;;
8488;SDS011;4281;45.772;12.852;2023-10-08T11:16:45;17.97;;;16.17;;
8488;SDS011;4281;45.772;12.852;2023-10-08T11:19:14;17.57;;;15.97;;
8488;SDS011;4281;45.772;12.852;2023-10-08T11:21:49;18.00;;;16.30;;
8488;SDS011;4281;45.772;12.852;2023-10-08T11:24:27;19.53;;;17.47;;
8488;SDS011;4281;45.772;12.852;2023-10-08T11:26:56;17.00;;;15.23;;
8488;SDS011;4281;45.772;12.852;2023-10-08T11:29:42;18.80;;;16.90;;
8488;SDS011;4281;45.772;12.852;2023-10-08T11:32:11;17.83;;;15.73;;
8488;SDS011;4281;45.772;12.852;2023-10-08T11:34:42;16.30;;;14.70;;
8488;SDS011;4281;45.772;12.852;2023-10-08T11:37:10;17.93;;;16.13;;
8488;SDS011;4281;45.772;12.852;2023-10-08T11:39:47;16.43;;;14.83;;
8488;SDS011;4281;45.772;12.852;2023-10-08T11:42:16;16.80;;;15.20;;
8488;SDS011;4281;45.772;12.852;2023-10-08T11:45:07;15.47;;;13.97;;
8488;SDS011;4281;45.772;12.852;2023-10-08T11:47:50;15.03;;;13.53;;
8488;SDS011;4281;45.772;12.852;2023-10-08T11:50:23;15.57;;;14.07;;
8488;SDS011;4281;45.772;12.852;2023-10-08T11:52:57;16.53;;;14.73;;
8488;SDS011;4281;45.772;12.852;2023-10-08T11:55:30;15.80;;;14.10;;
8488;SDS011;4281;45.772;12.852;2023-10-08T11:58:04;15.93;;;14.33;;
8488;SDS011;4281;45.772;12.852;2023-10-08T12:00:37;15.50;;;13.93;;
8488;SDS011;4281;45.772;12.852;2023-10-08T12:03:11;16.17;;;14.60;;
8488;SDS011;4281;45.772;12.852;2023-10-08T12:05:39;16.87;;;15.27;;
8488;SDS011;4281;45.772;12.852;2023-10-08T12:08:15;16.57;;;14.90;;
8488;SDS011;4281;45.772;12.852;2023-10-08T12:10:43;15.10;;;13.67;;
8488;SDS011;4281;45.772;12.852;2023-10-08T12:13:14;15.60;;;14.20;;
8488;SDS011;4281;45.772;12.852;2023-10-08T12:15:45;15.40;;;13.83;;
8488;SDS011;4281;45.772;12.852;2023-10-08T12:18:14;15.80;;;14.20;;
8488;SDS011;4281;45.772;12.852;2023-10-08T12:20:51;16.97;;;14.27;;
8488;SDS011;4281;45.772;12.852;2023-10-08T12:23:20;16.07;;;14.37;;
8488;SDS011;4281;45.772;12.852;2023-10-08T12:25:51;15.53;;;14.03;;
8488;SDS011;4281;45.772;12.852;2023-10-08T12:28:23;16.40;;;14.80;;
8488;SDS011;4281;45.772;12.852;2023-10-08T12:30:53;14.57;;;13.07;;
8488;SDS011;4281;45.772;12.852;2023-10-08T12:33:23;14.83;;;13.33;;
8488;SDS011;4281;45.772;12.852;2023-10-08T12:35:53;14.47;;;12.70;;
8488;SDS011;4281;45.772;12.852;2023-10-08T12:38:22;13.57;;;12.23;;
8488;SDS011;4281;45.772;12.852;2023-10-08T12:40:54;13.80;;;12.17;;
8488;SDS011;4281;45.772;12.852;2023-10-08T12:43:23;14.23;;;12.60;;
8488;SDS011;4281;45.772;12.852;2023-10-08T12:45:54;12.70;;;11.50;;
8488;SDS011;4281;45.772;12.852;2023-10-08T12:48:23;13.47;;;12.17;;
8488;SDS011;4281;45.772;12.852;2023-10-08T12:50:53;13.80;;;11.70;;
8488;SDS011;4281;45.772;12.852;2023-10-08T12:53:23;12.30;;;11.10;;
8488;SDS011;4281;45.772;12.852;2023-10-08T12:56:00;13.17;;;11.87;;
8488;SDS011;4281;45.772;12.852;2023-10-08T12:58:34;12.77;;;11.57;;
8488;SDS011;4281;45.772;12.852;2023-10-08T13:01:10;13.47;;;12.13;;
8488;SDS011;4281;45.772;12.852;2023-10-08T13:03:40;11.63;;;10.53;;
8488;SDS011;4281;45.772;12.852;2023-10-08T13:06:09;12.53;;;11.40;;
8488;SDS011;4281;45.772;12.852;2023-10-08T13:08:41;13.53;;;12.10;;
8488;SDS011;4281;45.772;12.852;2023-10-08T13:11:09;12.27;;;11.13;;
8488;SDS011;4281;45.772;12.852;2023-10-08T13:13:39;12.03;;;10.83;;
8488;SDS011;4281;45.772;12.852;2023-10-08T13:16:07;11.33;;;10.27;;
8488;SDS011;4281;45.772;12.852;2023-10-08T13:18:36;12.90;;;11.60;;
8488;SDS011;4281;45.772;12.852;2023-10-08T13:21:06;12.90;;;11.60;;
8488;SDS011;4281;45.772;12.852;2023-10-08T13:23:35;12.83;;;11.63;;
8488;SDS011;4281;45.772;12.852;2023-10-08T13:26:04;11.77;;;10.67;;
8488;SDS011;4281;45.772;12.852;2023-10-08T13:28:33;12.13;;;10.93;;
8488;SDS011;4281;45.772;12.852;2023-10-08T13:31:04;13.90;;;12.60;;
8488;SDS011;4281;45.772;12.852;2023-10-08T13:33:37;13.77;;;12.40;;
8488;SDS011;4281;45.772;12.852;2023-10-08T13:36:06;13.10;;;11.90;;
8488;SDS011;4281;45.772;12.852;2023-10-08T13:38:44;12.03;;;10.93;;
8488;SDS011;4281;45.772;12.852;2023-10-08T13:41:14;12.60;;;11.40;;
8488;SDS011;4281;45.772;12.852;2023-10-08T13:43:43;12.37;;;11.17;;
8488;SDS011;4281;45.772;12.852;2023-10-08T13:46:14;13.63;;;12.20;;
8488;SDS011;4281;45.772;12.852;2023-10-08T13:48:44;14.07;;;12.67;;
8488;SDS011;4281;45.772;12.852;2023-10-08T13:51:15;13.13;;;11.93;;
8488;SDS011;4281;45.772;12.852;2023-10-08T13:53:50;12.93;;;11.73;;
8488;SDS011;4281;45.772;12.852;2023-10-08T13:56:20;11.80;;;10.70;;
8488;SDS011;4281;45.772;12.852;2023-10-08T13:58:52;12.83;;;11.47;;
8488;SDS011;4281;45.772;12.852;2023-10-08T14:01:31;12.40;;;11.20;;
8488;SDS011;4281;45.772;12.852;2023-10-08T14:04:00;12.23;;;11.03;;
8488;SDS011;4281;45.772;12.852;2023-10-08T14:06:36;13.40;;;11.20;;
8488;SDS011;4281;45.772;12.852;2023-10-08T14:09:07;13.33;;;11.93;;
8488;SDS011;4281;45.772;12.852;2023-10-08T14:11:38;14.47;;;13.07;;
8488;SDS011;4281;45.772;12.852;2023-10-08T14:14:06;12.80;;;11.60;;
8488;SDS011;4281;45.772;12.852;2023-10-08T14:16:39;12.90;;;11.60;;
8488;SDS011;4281;45.772;12.852;2023-10-08T14:19:09;12.27;;;11.07;;
8488;SDS011;4281;45.772;12.852;2023-10-08T14:25:10;11.93;;;10.83;;
8488;SDS011;4281;45.772;12.852;2023-10-08T14:27:41;12.17;;;11.07;;
8488;SDS011;4281;45.772;12.852;2023-10-08T14:30:18;12.67;;;11.47;;
8488;SDS011;4281;45.772;12.852;2023-10-08T14:32:52;12.90;;;11.60;;
8488;SDS011;4281;45.772;12.852;2023-10-08T14:35:24;14.20;;;12.80;;
8488;SDS011;4281;45.772;12.852;2023-10-08T14:38:09;14.20;;;12.80;;
8488;SDS011;4281;45.772;12.852;2023-10-08T14:40:55;14.73;;;13.43;;
8488;SDS011;4281;45.772;12.852;2023-10-08T14:43:40;15.43;;;13.93;;
8488;SDS011;4281;45.772;12.852;2023-10-08T14:46:09;14.07;;;12.67;;
8488;SDS011;4281;45.772;12.852;2023-10-08T14:48:39;16.60;;;14.40;;
8488;SDS011;4281;45.772;12.852;2023-10-08T14:51:07;16.27;;;14.67;;
8488;SDS011;4281;45.772;12.852;2023-10-08T14:53:42;16.63;;;14.93;;
8488;SDS011;4281;45.772;12.852;2023-10-08T14:56:11;14.67;;;13.27;;
8488;SDS011;4281;45.772;12.852;2023-10-08T14:58:42;14.83;;;13.33;;
8488;SDS011;4281;45.772;12.852;2023-10-08T15:01:10;15.77;;;14.27;;
8488;SDS011;4281;45.772;12.852;2023-10-08T15:03:41;15.00;;;13.50;;
8488;SDS011;4281;45.772;12.852;2023-10-08T15:06:09;15.93;;;14.33;;
8488;SDS011;4281;45.772;12.852;2023-10-08T15:08:37;16.33;;;14.83;;
8488;SDS011;4281;45.772;12.852;2023-10-08T15:11:06;15.93;;;14.40;;
8488;SDS011;4281;45.772;12.852;2023-10-08T15:13:36;16.43;;;14.83;;
8488;SDS011;4281;45.772;12.852;2023-10-08T15:16:05;18.07;;;16.17;;
8488;SDS011;4281;45.772;12.852;2023-10-08T15:18:33;17.00;;;15.40;;
8488;SDS011;4281;45.772;12.852;2023-10-08T15:21:10;15.80;;;14.37;;
8488;SDS011;4281;45.772;12.852;2023-10-08T15:23:38;16.73;;;15.17;;